METAR Data
IDs: Format: Raw Decoded Include TAF

Data at: 1606 UTC 26 Sep 2021

METAR for:TUPJ (Beef Isl/Lettsome In, VI, UK)
Text:TUPJ 261600Z 14006KT 10SM SCT018 32/26 A2998 RMK Q1015 VIS16KM
Temperature: 32.0°C ( 90°F)
Dewpoint: 26.0°C ( 79°F) [RH = 71%]
Pressure (altimeter):29.98 inches Hg (1015.3 mb)
Winds:from the SE (140 degrees) at 7 MPH (6 knots; 3.1 m/s)
Visibility:10 or more sm (16+ km)
Ceiling:at least 12,000 feet AGL
Clouds: scattered clouds at 1800 feet AGL